<?xml version="1.0" encoding="UTF-8" standalone="no" ?>
<gpx xmlns="http://www.topografix.com/GPX/1/1" xmlns:xsi="http://www.w3.org/2001/XMLSchema-instance" xsi:schemaLocation="http://www.topografix.com/GPX/1/1 http://www.topografix.com/GPX/1/1/gpx.xsd" version="1.1" creator="VisuGPX - https://www.visugpx.com">
  <metadata>
    <name>2021-03-06 Vlmont(2)</name>
  </metadata>
  <trk>
    <name><![CDATA[2021-03-06 09:23:07]]></name>
    <trkseg>
      <trkpt lat="49.08627" lon="6.69568">
        <ele>293.34</ele>
        <time>2021-03-06T06:00:18Z</time>
      </trkpt>
      <trkpt lat="49.08627" lon="6.69568">
        <ele>293.34</ele>
        <time>2021-03-06T06:00:19Z</time>
      </trkpt>
      <trkpt lat="49.0863" lon="6.69566">
        <ele>293.82</ele>
        <time>2021-03-06T06:00:41Z</time>
      </trkpt>
      <trkpt lat="49.0863" lon="6.69568">
        <ele>293.34</ele>
        <time>2021-03-06T06:01:16Z</time>
      </trkpt>
      <trkpt lat="49.08631" lon="6.69566">
        <ele>293.82</ele>
        <time>2021-03-06T06:01:43Z</time>
      </trkpt>
      <trkpt lat="49.08631" lon="6.69566">
        <ele>293.82</ele>
        <time>2021-03-06T06:02:25Z</time>
      </trkpt>
      <trkpt lat="49.08629" lon="6.69565">
        <ele>293.82</ele>
        <time>2021-03-06T06:03:02Z</time>
      </trkpt>
      <trkpt lat="49.08631" lon="6.69566">
        <ele>294.78</ele>
        <time>2021-03-06T06:03:25Z</time>
      </trkpt>
      <trkpt lat="49.0863" lon="6.69566">
        <ele>293.34</ele>
        <time>2021-03-06T06:04:07Z</time>
      </trkpt>
      <trkpt lat="49.0863" lon="6.6957">
        <ele>293.82</ele>
        <time>2021-03-06T06:04:31Z</time>
      </trkpt>
      <trkpt lat="49.0863" lon="6.6957">
        <ele>293.82</ele>
        <time>2021-03-06T06:05:05Z</time>
      </trkpt>
      <trkpt lat="49.08628" lon="6.69568">
        <ele>293.82</ele>
        <time>2021-03-06T06:05:34Z</time>
      </trkpt>
      <trkpt lat="49.08629" lon="6.69566">
        <ele>293.82</ele>
        <time>2021-03-06T06:05:56Z</time>
      </trkpt>
      <trkpt lat="49.08628" lon="6.69566">
        <ele>293.34</ele>
        <time>2021-03-06T06:06:34Z</time>
      </trkpt>
      <trkpt lat="49.08627" lon="6.69563">
        <ele>293.34</ele>
        <time>2021-03-06T06:07:04Z</time>
      </trkpt>
      <trkpt lat="49.08629" lon="6.69565">
        <ele>293.34</ele>
        <time>2021-03-06T06:07:42Z</time>
      </trkpt>
      <trkpt lat="49.08629" lon="6.69567">
        <ele>293.34</ele>
        <time>2021-03-06T06:08:01Z</time>
      </trkpt>
      <trkpt lat="49.08629" lon="6.69571">
        <ele>292.86</ele>
        <time>2021-03-06T06:08:18Z</time>
      </trkpt>
      <trkpt lat="49.08627" lon="6.69577">
        <ele>293.34</ele>
        <time>2021-03-06T06:08:24Z</time>
      </trkpt>
      <trkpt lat="49.08618" lon="6.69605">
        <ele>292.86</ele>
        <time>2021-03-06T06:08:43Z</time>
      </trkpt>
      <trkpt lat="49.08609" lon="6.69643">
        <ele>291.42</ele>
        <time>2021-03-06T06:09:06Z</time>
      </trkpt>
      <trkpt lat="49.08601" lon="6.69674">
        <ele>289.97</ele>
        <time>2021-03-06T06:09:24Z</time>
      </trkpt>
      <trkpt lat="49.08591" lon="6.69711">
        <ele>288.05</ele>
        <time>2021-03-06T06:09:44Z</time>
      </trkpt>
      <trkpt lat="49.08581" lon="6.6975">
        <ele>286.61</ele>
        <time>2021-03-06T06:10:04Z</time>
      </trkpt>
      <trkpt lat="49.08574" lon="6.69776">
        <ele>285.17</ele>
        <time>2021-03-06T06:10:18Z</time>
      </trkpt>
      <trkpt lat="49.08564" lon="6.69795">
        <ele>283.25</ele>
        <time>2021-03-06T06:10:29Z</time>
      </trkpt>
      <trkpt lat="49.08546" lon="6.69793">
        <ele>282.77</ele>
        <time>2021-03-06T06:10:43Z</time>
      </trkpt>
      <trkpt lat="49.08522" lon="6.69777">
        <ele>281.32</ele>
        <time>2021-03-06T06:11:03Z</time>
      </trkpt>
      <trkpt lat="49.08503" lon="6.69788">
        <ele>278.44</ele>
        <time>2021-03-06T06:11:20Z</time>
      </trkpt>
      <trkpt lat="49.08488" lon="6.69819">
        <ele>276.52</ele>
        <time>2021-03-06T06:11:40Z</time>
      </trkpt>
      <trkpt lat="49.08461" lon="6.69801">
        <ele>275.56</ele>
        <time>2021-03-06T06:12:00Z</time>
      </trkpt>
      <trkpt lat="49.08434" lon="6.69779">
        <ele>276.04</ele>
        <time>2021-03-06T06:12:22Z</time>
      </trkpt>
      <trkpt lat="49.08407" lon="6.69769">
        <ele>277</ele>
        <time>2021-03-06T06:12:43Z</time>
      </trkpt>
      <trkpt lat="49.0838" lon="6.69758">
        <ele>280.36</ele>
        <time>2021-03-06T06:13:03Z</time>
      </trkpt>
      <trkpt lat="49.08354" lon="6.69748">
        <ele>281.32</ele>
        <time>2021-03-06T06:13:25Z</time>
      </trkpt>
      <trkpt lat="49.08321" lon="6.69736">
        <ele>281.8</ele>
        <time>2021-03-06T06:13:50Z</time>
      </trkpt>
      <trkpt lat="49.08317" lon="6.69737">
        <ele>282.77</ele>
        <time>2021-03-06T06:13:56Z</time>
      </trkpt>
      <trkpt lat="49.08312" lon="6.69764">
        <ele>281.8</ele>
        <time>2021-03-06T06:14:11Z</time>
      </trkpt>
      <trkpt lat="49.08284" lon="6.69762">
        <ele>280.84</ele>
        <time>2021-03-06T06:14:31Z</time>
      </trkpt>
      <trkpt lat="49.08259" lon="6.69752">
        <ele>279.88</ele>
        <time>2021-03-06T06:14:51Z</time>
      </trkpt>
      <trkpt lat="49.0824" lon="6.69743">
        <ele>278.92</ele>
        <time>2021-03-06T06:15:11Z</time>
      </trkpt>
      <trkpt lat="49.0824" lon="6.69739">
        <ele>278.44</ele>
        <time>2021-03-06T06:15:27Z</time>
      </trkpt>
      <trkpt lat="49.08241" lon="6.69734">
        <ele>278.92</ele>
        <time>2021-03-06T06:15:46Z</time>
      </trkpt>
      <trkpt lat="49.08231" lon="6.69735">
        <ele>278.44</ele>
        <time>2021-03-06T06:16:03Z</time>
      </trkpt>
      <trkpt lat="49.08205" lon="6.69721">
        <ele>275.56</ele>
        <time>2021-03-06T06:16:25Z</time>
      </trkpt>
      <trkpt lat="49.08183" lon="6.69704">
        <ele>275.07</ele>
        <time>2021-03-06T06:16:44Z</time>
      </trkpt>
      <trkpt lat="49.08158" lon="6.6968">
        <ele>274.11</ele>
        <time>2021-03-06T06:17:04Z</time>
      </trkpt>
      <trkpt lat="49.08147" lon="6.69668">
        <ele>273.15</ele>
        <time>2021-03-06T06:17:17Z</time>
      </trkpt>
      <trkpt lat="49.08145" lon="6.69656">
        <ele>273.15</ele>
        <time>2021-03-06T06:17:25Z</time>
      </trkpt>
      <trkpt lat="49.08132" lon="6.69629">
        <ele>273.15</ele>
        <time>2021-03-06T06:17:43Z</time>
      </trkpt>
      <trkpt lat="49.08117" lon="6.69602">
        <ele>272.19</ele>
        <time>2021-03-06T06:18:02Z</time>
      </trkpt>
      <trkpt lat="49.08096" lon="6.69565">
        <ele>272.19</ele>
        <time>2021-03-06T06:18:25Z</time>
      </trkpt>
      <trkpt lat="49.08081" lon="6.69545">
        <ele>272.19</ele>
        <time>2021-03-06T06:18:43Z</time>
      </trkpt>
      <trkpt lat="49.08073" lon="6.69533">
        <ele>270.75</ele>
        <time>2021-03-06T06:18:52Z</time>
      </trkpt>
      <trkpt lat="49.08045" lon="6.69517">
        <ele>271.71</ele>
        <time>2021-03-06T06:19:13Z</time>
      </trkpt>
      <trkpt lat="49.08012" lon="6.69513">
        <ele>271.23</ele>
        <time>2021-03-06T06:19:37Z</time>
      </trkpt>
      <trkpt lat="49.07987" lon="6.69509">
        <ele>271.23</ele>
        <time>2021-03-06T06:19:56Z</time>
      </trkpt>
      <trkpt lat="49.07964" lon="6.69507">
        <ele>270.75</ele>
        <time>2021-03-06T06:20:13Z</time>
      </trkpt>
      <trkpt lat="49.0794" lon="6.69506">
        <ele>271.71</ele>
        <time>2021-03-06T06:20:33Z</time>
      </trkpt>
      <trkpt lat="49.07914" lon="6.69515">
        <ele>270.75</ele>
        <time>2021-03-06T06:20:53Z</time>
      </trkpt>
      <trkpt lat="49.07881" lon="6.69527">
        <ele>270.75</ele>
        <time>2021-03-06T06:21:18Z</time>
      </trkpt>
      <trkpt lat="49.07853" lon="6.69538">
        <ele>269.79</ele>
        <time>2021-03-06T06:21:39Z</time>
      </trkpt>
      <trkpt lat="49.0782" lon="6.69549">
        <ele>269.79</ele>
        <time>2021-03-06T06:22:03Z</time>
      </trkpt>
      <trkpt lat="49.07792" lon="6.69562">
        <ele>269.31</ele>
        <time>2021-03-06T06:22:23Z</time>
      </trkpt>
      <trkpt lat="49.07766" lon="6.69582">
        <ele>268.83</ele>
        <time>2021-03-06T06:22:45Z</time>
      </trkpt>
      <trkpt lat="49.07742" lon="6.69611">
        <ele>267.86</ele>
        <time>2021-03-06T06:23:08Z</time>
      </trkpt>
      <trkpt lat="49.07741" lon="6.69613">
        <ele>267.38</ele>
        <time>2021-03-06T06:23:09Z</time>
      </trkpt>
      <trkpt lat="49.07741" lon="6.69621">
        <ele>266.42</ele>
        <time>2021-03-06T06:23:13Z</time>
      </trkpt>
      <trkpt lat="49.07744" lon="6.69646">
        <ele>265.94</ele>
        <time>2021-03-06T06:23:25Z</time>
      </trkpt>
      <trkpt lat="49.07748" lon="6.69651">
        <ele>265.46</ele>
        <time>2021-03-06T06:23:30Z</time>
      </trkpt>
      <trkpt lat="49.07749" lon="6.6966">
        <ele>265.46</ele>
        <time>2021-03-06T06:23:35Z</time>
      </trkpt>
      <trkpt lat="49.07754" lon="6.6971">
        <ele>264.98</ele>
        <time>2021-03-06T06:24:00Z</time>
      </trkpt>
      <trkpt lat="49.07757" lon="6.69758">
        <ele>264.5</ele>
        <time>2021-03-06T06:24:24Z</time>
      </trkpt>
      <trkpt lat="49.07756" lon="6.6981">
        <ele>263.54</ele>
        <time>2021-03-06T06:24:48Z</time>
      </trkpt>
      <trkpt lat="49.07752" lon="6.69852">
        <ele>261.62</ele>
        <time>2021-03-06T06:25:08Z</time>
      </trkpt>
      <trkpt lat="49.07746" lon="6.69886">
        <ele>260.65</ele>
        <time>2021-03-06T06:25:26Z</time>
      </trkpt>
      <trkpt lat="49.07741" lon="6.69921">
        <ele>259.21</ele>
        <time>2021-03-06T06:25:44Z</time>
      </trkpt>
      <trkpt lat="49.07737" lon="6.69947">
        <ele>259.69</ele>
        <time>2021-03-06T06:26:00Z</time>
      </trkpt>
      <trkpt lat="49.07729" lon="6.69989">
        <ele>258.25</ele>
        <time>2021-03-06T06:26:22Z</time>
      </trkpt>
      <trkpt lat="49.07721" lon="6.7003">
        <ele>259.21</ele>
        <time>2021-03-06T06:26:43Z</time>
      </trkpt>
      <trkpt lat="49.0771" lon="6.70068">
        <ele>257.77</ele>
        <time>2021-03-06T06:27:04Z</time>
      </trkpt>
      <trkpt lat="49.07695" lon="6.70105">
        <ele>257.77</ele>
        <time>2021-03-06T06:27:26Z</time>
      </trkpt>
      <trkpt lat="49.07679" lon="6.70135">
        <ele>258.25</ele>
        <time>2021-03-06T06:27:46Z</time>
      </trkpt>
      <trkpt lat="49.07676" lon="6.70141">
        <ele>257.77</ele>
        <time>2021-03-06T06:27:57Z</time>
      </trkpt>
      <trkpt lat="49.07658" lon="6.70178">
        <ele>257.77</ele>
        <time>2021-03-06T06:28:20Z</time>
      </trkpt>
      <trkpt lat="49.07643" lon="6.7021">
        <ele>256.81</ele>
        <time>2021-03-06T06:28:39Z</time>
      </trkpt>
      <trkpt lat="49.07628" lon="6.7024">
        <ele>254.89</ele>
        <time>2021-03-06T06:28:58Z</time>
      </trkpt>
      <trkpt lat="49.07612" lon="6.7027">
        <ele>255.37</ele>
        <time>2021-03-06T06:29:16Z</time>
      </trkpt>
      <trkpt lat="49.07597" lon="6.70308">
        <ele>255.37</ele>
        <time>2021-03-06T06:29:36Z</time>
      </trkpt>
      <trkpt lat="49.07592" lon="6.7032">
        <ele>254.89</ele>
        <time>2021-03-06T06:29:44Z</time>
      </trkpt>
      <trkpt lat="49.07594" lon="6.7033">
        <ele>255.85</ele>
        <time>2021-03-06T06:29:49Z</time>
      </trkpt>
      <trkpt lat="49.07607" lon="6.70352">
        <ele>255.85</ele>
        <time>2021-03-06T06:30:05Z</time>
      </trkpt>
      <trkpt lat="49.07628" lon="6.70382">
        <ele>255.37</ele>
        <time>2021-03-06T06:30:27Z</time>
      </trkpt>
      <trkpt lat="49.07654" lon="6.70417">
        <ele>254.41</ele>
        <time>2021-03-06T06:30:52Z</time>
      </trkpt>
      <trkpt lat="49.07676" lon="6.70448">
        <ele>252.96</ele>
        <time>2021-03-06T06:31:15Z</time>
      </trkpt>
      <trkpt lat="49.07698" lon="6.70477">
        <ele>252.96</ele>
        <time>2021-03-06T06:31:36Z</time>
      </trkpt>
      <trkpt lat="49.07719" lon="6.70511">
        <ele>252</ele>
        <time>2021-03-06T06:31:59Z</time>
      </trkpt>
      <trkpt lat="49.07738" lon="6.70543">
        <ele>252.48</ele>
        <time>2021-03-06T06:32:21Z</time>
      </trkpt>
      <trkpt lat="49.0776" lon="6.70574">
        <ele>252.96</ele>
        <time>2021-03-06T06:32:43Z</time>
      </trkpt>
      <trkpt lat="49.07784" lon="6.70607">
        <ele>253.44</ele>
        <time>2021-03-06T06:33:07Z</time>
      </trkpt>
      <trkpt lat="49.07808" lon="6.70638">
        <ele>253.93</ele>
        <time>2021-03-06T06:33:31Z</time>
      </trkpt>
      <trkpt lat="49.0783" lon="6.70654">
        <ele>254.89</ele>
        <time>2021-03-06T06:33:51Z</time>
      </trkpt>
      <trkpt lat="49.07857" lon="6.70661">
        <ele>257.29</ele>
        <time>2021-03-06T06:34:12Z</time>
      </trkpt>
      <trkpt lat="49.07863" lon="6.70662">
        <ele>256.81</ele>
        <time>2021-03-06T06:34:17Z</time>
      </trkpt>
      <trkpt lat="49.07865" lon="6.70672">
        <ele>255.85</ele>
        <time>2021-03-06T06:34:30Z</time>
      </trkpt>
      <trkpt lat="49.07865" lon="6.70673">
        <ele>255.85</ele>
        <time>2021-03-06T06:34:31Z</time>
      </trkpt>
      <trkpt lat="49.07848" lon="6.70715">
        <ele>256.33</ele>
        <time>2021-03-06T06:34:56Z</time>
      </trkpt>
      <trkpt lat="49.07825" lon="6.70748">
        <ele>254.41</ele>
        <time>2021-03-06T06:35:19Z</time>
      </trkpt>
      <trkpt lat="49.07811" lon="6.70767">
        <ele>253.44</ele>
        <time>2021-03-06T06:35:34Z</time>
      </trkpt>
      <trkpt lat="49.07784" lon="6.70805">
        <ele>253.44</ele>
        <time>2021-03-06T06:36:02Z</time>
      </trkpt>
      <trkpt lat="49.07763" lon="6.70838">
        <ele>253.44</ele>
        <time>2021-03-06T06:36:24Z</time>
      </trkpt>
      <trkpt lat="49.0774" lon="6.70879">
        <ele>253.44</ele>
        <time>2021-03-06T06:36:50Z</time>
      </trkpt>
      <trkpt lat="49.07724" lon="6.70906">
        <ele>253.44</ele>
        <time>2021-03-06T06:37:08Z</time>
      </trkpt>
      <trkpt lat="49.07719" lon="6.70913">
        <ele>253.44</ele>
        <time>2021-03-06T06:37:13Z</time>
      </trkpt>
      <trkpt lat="49.0771" lon="6.70928">
        <ele>253.93</ele>
        <time>2021-03-06T06:37:25Z</time>
      </trkpt>
      <trkpt lat="49.07698" lon="6.70969">
        <ele>253.44</ele>
        <time>2021-03-06T06:37:46Z</time>
      </trkpt>
      <trkpt lat="49.07691" lon="6.71004">
        <ele>254.41</ele>
        <time>2021-03-06T06:38:06Z</time>
      </trkpt>
      <trkpt lat="49.07688" lon="6.71033">
        <ele>253.93</ele>
        <time>2021-03-06T06:38:22Z</time>
      </trkpt>
      <trkpt lat="49.07674" lon="6.71065">
        <ele>254.41</ele>
        <time>2021-03-06T06:38:37Z</time>
      </trkpt>
      <trkpt lat="49.07676" lon="6.7108">
        <ele>254.41</ele>
        <time>2021-03-06T06:38:47Z</time>
      </trkpt>
      <trkpt lat="49.07696" lon="6.7109">
        <ele>254.89</ele>
        <time>2021-03-06T06:39:04Z</time>
      </trkpt>
      <trkpt lat="49.07717" lon="6.71106">
        <ele>255.85</ele>
        <time>2021-03-06T06:39:24Z</time>
      </trkpt>
      <trkpt lat="49.07741" lon="6.71123">
        <ele>257.77</ele>
        <time>2021-03-06T06:39:44Z</time>
      </trkpt>
      <trkpt lat="49.07762" lon="6.71133">
        <ele>258.25</ele>
        <time>2021-03-06T06:39:59Z</time>
      </trkpt>
      <trkpt lat="49.07789" lon="6.71154">
        <ele>258.25</ele>
        <time>2021-03-06T06:40:21Z</time>
      </trkpt>
      <trkpt lat="49.07802" lon="6.71163">
        <ele>259.21</ele>
        <time>2021-03-06T06:40:39Z</time>
      </trkpt>
      <trkpt lat="49.07804" lon="6.71162">
        <ele>259.21</ele>
        <time>2021-03-06T06:40:57Z</time>
      </trkpt>
      <trkpt lat="49.07808" lon="6.71163">
        <ele>258.25</ele>
        <time>2021-03-06T06:41:23Z</time>
      </trkpt>
      <trkpt lat="49.07824" lon="6.71179">
        <ele>258.25</ele>
        <time>2021-03-06T06:41:40Z</time>
      </trkpt>
      <trkpt lat="49.07844" lon="6.71196">
        <ele>259.21</ele>
        <time>2021-03-06T06:41:59Z</time>
      </trkpt>
      <trkpt lat="49.07864" lon="6.71214">
        <ele>258.73</ele>
        <time>2021-03-06T06:42:17Z</time>
      </trkpt>
      <trkpt lat="49.0788" lon="6.71229">
        <ele>259.69</ele>
        <time>2021-03-06T06:42:32Z</time>
      </trkpt>
      <trkpt lat="49.0791" lon="6.71244">
        <ele>258.73</ele>
        <time>2021-03-06T06:42:53Z</time>
      </trkpt>
      <trkpt lat="49.07939" lon="6.71268">
        <ele>259.69</ele>
        <time>2021-03-06T06:43:16Z</time>
      </trkpt>
      <trkpt lat="49.07966" lon="6.71286">
        <ele>258.25</ele>
        <time>2021-03-06T06:43:35Z</time>
      </trkpt>
      <trkpt lat="49.07986" lon="6.71303">
        <ele>259.21</ele>
        <time>2021-03-06T06:43:52Z</time>
      </trkpt>
      <trkpt lat="49.08007" lon="6.71324">
        <ele>259.21</ele>
        <time>2021-03-06T06:44:11Z</time>
      </trkpt>
      <trkpt lat="49.08032" lon="6.71341">
        <ele>258.73</ele>
        <time>2021-03-06T06:44:28Z</time>
      </trkpt>
      <trkpt lat="49.08057" lon="6.71363">
        <ele>259.21</ele>
        <time>2021-03-06T06:44:47Z</time>
      </trkpt>
      <trkpt lat="49.08077" lon="6.71385">
        <ele>258.25</ele>
        <time>2021-03-06T06:45:05Z</time>
      </trkpt>
      <trkpt lat="49.08102" lon="6.71413">
        <ele>258.73</ele>
        <time>2021-03-06T06:45:27Z</time>
      </trkpt>
      <trkpt lat="49.08127" lon="6.71441">
        <ele>258.25</ele>
        <time>2021-03-06T06:45:49Z</time>
      </trkpt>
      <trkpt lat="49.0815" lon="6.71471">
        <ele>258.25</ele>
        <time>2021-03-06T06:46:11Z</time>
      </trkpt>
      <trkpt lat="49.08154" lon="6.71476">
        <ele>254.89</ele>
        <time>2021-03-06T06:46:15Z</time>
      </trkpt>
      <trkpt lat="49.08155" lon="6.71477">
        <ele>260.65</ele>
        <time>2021-03-06T06:46:16Z</time>
      </trkpt>
      <trkpt lat="49.08173" lon="6.71505">
        <ele>258.25</ele>
        <time>2021-03-06T06:46:34Z</time>
      </trkpt>
      <trkpt lat="49.08195" lon="6.71534">
        <ele>258.25</ele>
        <time>2021-03-06T06:46:55Z</time>
      </trkpt>
      <trkpt lat="49.08212" lon="6.71565">
        <ele>259.21</ele>
        <time>2021-03-06T06:47:15Z</time>
      </trkpt>
      <trkpt lat="49.0823" lon="6.71597">
        <ele>259.21</ele>
        <time>2021-03-06T06:47:36Z</time>
      </trkpt>
      <trkpt lat="49.08233" lon="6.71602">
        <ele>257.77</ele>
        <time>2021-03-06T06:47:40Z</time>
      </trkpt>
      <trkpt lat="49.08239" lon="6.71613">
        <ele>259.21</ele>
        <time>2021-03-06T06:47:47Z</time>
      </trkpt>
      <trkpt lat="49.08248" lon="6.71627">
        <ele>259.21</ele>
        <time>2021-03-06T06:47:58Z</time>
      </trkpt>
      <trkpt lat="49.08265" lon="6.71658">
        <ele>258.25</ele>
        <time>2021-03-06T06:48:18Z</time>
      </trkpt>
      <trkpt lat="49.08286" lon="6.71689">
        <ele>258.73</ele>
        <time>2021-03-06T06:48:39Z</time>
      </trkpt>
      <trkpt lat="49.08304" lon="6.7172">
        <ele>258.25</ele>
        <time>2021-03-06T06:49:00Z</time>
      </trkpt>
      <trkpt lat="49.08325" lon="6.71757">
        <ele>258.25</ele>
        <time>2021-03-06T06:49:23Z</time>
      </trkpt>
      <trkpt lat="49.08343" lon="6.71786">
        <ele>258.25</ele>
        <time>2021-03-06T06:49:43Z</time>
      </trkpt>
      <trkpt lat="49.08367" lon="6.71824">
        <ele>258.25</ele>
        <time>2021-03-06T06:50:08Z</time>
      </trkpt>
      <trkpt lat="49.08387" lon="6.71858">
        <ele>258.73</ele>
        <time>2021-03-06T06:50:31Z</time>
      </trkpt>
      <trkpt lat="49.08412" lon="6.71897">
        <ele>258.73</ele>
        <time>2021-03-06T06:50:58Z</time>
      </trkpt>
      <trkpt lat="49.0843" lon="6.71923">
        <ele>259.21</ele>
        <time>2021-03-06T06:51:17Z</time>
      </trkpt>
      <trkpt lat="49.08452" lon="6.71957">
        <ele>258.25</ele>
        <time>2021-03-06T06:51:40Z</time>
      </trkpt>
      <trkpt lat="49.08473" lon="6.71988">
        <ele>257.77</ele>
        <time>2021-03-06T06:52:03Z</time>
      </trkpt>
      <trkpt lat="49.08496" lon="6.72019">
        <ele>258.25</ele>
        <time>2021-03-06T06:52:25Z</time>
      </trkpt>
      <trkpt lat="49.08519" lon="6.72052">
        <ele>258.73</ele>
        <time>2021-03-06T06:52:49Z</time>
      </trkpt>
      <trkpt lat="49.08542" lon="6.72082">
        <ele>258.73</ele>
        <time>2021-03-06T06:53:11Z</time>
      </trkpt>
      <trkpt lat="49.08569" lon="6.72118">
        <ele>258.25</ele>
        <time>2021-03-06T06:53:38Z</time>
      </trkpt>
      <trkpt lat="49.0859" lon="6.72159">
        <ele>258.73</ele>
        <time>2021-03-06T06:54:03Z</time>
      </trkpt>
      <trkpt lat="49.08614" lon="6.7219">
        <ele>260.17</ele>
        <time>2021-03-06T06:54:26Z</time>
      </trkpt>
      <trkpt lat="49.08634" lon="6.72211">
        <ele>262.58</ele>
        <time>2021-03-06T06:54:44Z</time>
      </trkpt>
      <trkpt lat="49.08636" lon="6.72216">
        <ele>263.06</ele>
        <time>2021-03-06T06:54:48Z</time>
      </trkpt>
      <trkpt lat="49.08659" lon="6.7224">
        <ele>264.5</ele>
        <time>2021-03-06T06:55:11Z</time>
      </trkpt>
      <trkpt lat="49.08681" lon="6.72264">
        <ele>263.06</ele>
        <time>2021-03-06T06:55:31Z</time>
      </trkpt>
      <trkpt lat="49.08708" lon="6.7228">
        <ele>262.58</ele>
        <time>2021-03-06T06:55:51Z</time>
      </trkpt>
      <trkpt lat="49.08712" lon="6.72284">
        <ele>260.65</ele>
        <time>2021-03-06T06:55:55Z</time>
      </trkpt>
      <trkpt lat="49.08717" lon="6.72288">
        <ele>262.1</ele>
        <time>2021-03-06T06:55:59Z</time>
      </trkpt>
      <trkpt lat="49.08743" lon="6.72316">
        <ele>262.1</ele>
        <time>2021-03-06T06:56:23Z</time>
      </trkpt>
      <trkpt lat="49.08772" lon="6.72344">
        <ele>262.1</ele>
        <time>2021-03-06T06:56:46Z</time>
      </trkpt>
      <trkpt lat="49.088" lon="6.72377">
        <ele>263.54</ele>
        <time>2021-03-06T06:57:11Z</time>
      </trkpt>
      <trkpt lat="49.08823" lon="6.72409">
        <ele>263.54</ele>
        <time>2021-03-06T06:57:35Z</time>
      </trkpt>
      <trkpt lat="49.08854" lon="6.72442">
        <ele>264.98</ele>
        <time>2021-03-06T06:58:00Z</time>
      </trkpt>
      <trkpt lat="49.08877" lon="6.72471">
        <ele>264.98</ele>
        <time>2021-03-06T06:58:22Z</time>
      </trkpt>
      <trkpt lat="49.08903" lon="6.72499">
        <ele>265.94</ele>
        <time>2021-03-06T06:58:45Z</time>
      </trkpt>
      <trkpt lat="49.08926" lon="6.72528">
        <ele>265.94</ele>
        <time>2021-03-06T06:59:07Z</time>
      </trkpt>
      <trkpt lat="49.08954" lon="6.72561">
        <ele>267.86</ele>
        <time>2021-03-06T06:59:32Z</time>
      </trkpt>
      <trkpt lat="49.08972" lon="6.72587">
        <ele>269.31</ele>
        <time>2021-03-06T06:59:51Z</time>
      </trkpt>
      <trkpt lat="49.0899" lon="6.72615">
        <ele>269.79</ele>
        <time>2021-03-06T07:00:11Z</time>
      </trkpt>
      <trkpt lat="49.09005" lon="6.72633">
        <ele>269.79</ele>
        <time>2021-03-06T07:00:27Z</time>
      </trkpt>
      <trkpt lat="49.09022" lon="6.72653">
        <ele>271.71</ele>
        <time>2021-03-06T07:00:46Z</time>
      </trkpt>
      <trkpt lat="49.09031" lon="6.72665">
        <ele>271.71</ele>
        <time>2021-03-06T07:01:00Z</time>
      </trkpt>
      <trkpt lat="49.09038" lon="6.72674">
        <ele>272.67</ele>
        <time>2021-03-06T07:01:08Z</time>
      </trkpt>
      <trkpt lat="49.0906" lon="6.72703">
        <ele>272.19</ele>
        <time>2021-03-06T07:01:30Z</time>
      </trkpt>
      <trkpt lat="49.09077" lon="6.72727">
        <ele>271.23</ele>
        <time>2021-03-06T07:01:49Z</time>
      </trkpt>
      <trkpt lat="49.09097" lon="6.72753">
        <ele>271.23</ele>
        <time>2021-03-06T07:02:11Z</time>
      </trkpt>
      <trkpt lat="49.09108" lon="6.72769">
        <ele>271.23</ele>
        <time>2021-03-06T07:02:26Z</time>
      </trkpt>
      <trkpt lat="49.09119" lon="6.72784">
        <ele>270.27</ele>
        <time>2021-03-06T07:02:44Z</time>
      </trkpt>
      <trkpt lat="49.09132" lon="6.72804">
        <ele>270.75</ele>
        <time>2021-03-06T07:03:01Z</time>
      </trkpt>
      <trkpt lat="49.09138" lon="6.72812">
        <ele>270.75</ele>
        <time>2021-03-06T07:03:07Z</time>
      </trkpt>
      <trkpt lat="49.09142" lon="6.72817">
        <ele>269.31</ele>
        <time>2021-03-06T07:03:13Z</time>
      </trkpt>
      <trkpt lat="49.09165" lon="6.7285">
        <ele>267.86</ele>
        <time>2021-03-06T07:03:36Z</time>
      </trkpt>
      <trkpt lat="49.09184" lon="6.72879">
        <ele>265.94</ele>
        <time>2021-03-06T07:03:57Z</time>
      </trkpt>
      <trkpt lat="49.09204" lon="6.72914">
        <ele>264.5</ele>
        <time>2021-03-06T07:04:19Z</time>
      </trkpt>
      <trkpt lat="49.09219" lon="6.72941">
        <ele>263.06</ele>
        <time>2021-03-06T07:04:36Z</time>
      </trkpt>
      <trkpt lat="49.09237" lon="6.72978">
        <ele>262.1</ele>
        <time>2021-03-06T07:04:57Z</time>
      </trkpt>
      <trkpt lat="49.0925" lon="6.73008">
        <ele>262.58</ele>
        <time>2021-03-06T07:05:16Z</time>
      </trkpt>
      <trkpt lat="49.09254" lon="6.73018">
        <ele>262.1</ele>
        <time>2021-03-06T07:05:32Z</time>
      </trkpt>
      <trkpt lat="49.09259" lon="6.73031">
        <ele>261.62</ele>
        <time>2021-03-06T07:05:53Z</time>
      </trkpt>
      <trkpt lat="49.09272" lon="6.73066">
        <ele>261.14</ele>
        <time>2021-03-06T07:06:14Z</time>
      </trkpt>
      <trkpt lat="49.09283" lon="6.73093">
        <ele>259.69</ele>
        <time>2021-03-06T07:06:30Z</time>
      </trkpt>
      <trkpt lat="49.09296" lon="6.73132">
        <ele>258.73</ele>
        <time>2021-03-06T07:06:50Z</time>
      </trkpt>
      <trkpt lat="49.09309" lon="6.73172">
        <ele>257.29</ele>
        <time>2021-03-06T07:07:11Z</time>
      </trkpt>
      <trkpt lat="49.0932" lon="6.7321">
        <ele>257.77</ele>
        <time>2021-03-06T07:07:31Z</time>
      </trkpt>
      <trkpt lat="49.0933" lon="6.73252">
        <ele>256.33</ele>
        <time>2021-03-06T07:07:52Z</time>
      </trkpt>
      <trkpt lat="49.09338" lon="6.73286">
        <ele>256.81</ele>
        <time>2021-03-06T07:08:10Z</time>
      </trkpt>
      <trkpt lat="49.09339" lon="6.73295">
        <ele>257.29</ele>
        <time>2021-03-06T07:08:26Z</time>
      </trkpt>
      <trkpt lat="49.09341" lon="6.73301">
        <ele>256.81</ele>
        <time>2021-03-06T07:08:43Z</time>
      </trkpt>
      <trkpt lat="49.09342" lon="6.73308">
        <ele>256.81</ele>
        <time>2021-03-06T07:09:04Z</time>
      </trkpt>
      <trkpt lat="49.09347" lon="6.73327">
        <ele>257.77</ele>
        <time>2021-03-06T07:09:17Z</time>
      </trkpt>
      <trkpt lat="49.09354" lon="6.73368">
        <ele>257.29</ele>
        <time>2021-03-06T07:09:38Z</time>
      </trkpt>
      <trkpt lat="49.09362" lon="6.73408">
        <ele>257.29</ele>
        <time>2021-03-06T07:09:58Z</time>
      </trkpt>
      <trkpt lat="49.09369" lon="6.73446">
        <ele>256.81</ele>
        <time>2021-03-06T07:10:17Z</time>
      </trkpt>
      <trkpt lat="49.09377" lon="6.73483">
        <ele>256.81</ele>
        <time>2021-03-06T07:10:35Z</time>
      </trkpt>
      <trkpt lat="49.09386" lon="6.73527">
        <ele>254.41</ele>
        <time>2021-03-06T07:10:56Z</time>
      </trkpt>
      <trkpt lat="49.09393" lon="6.73565">
        <ele>252.48</ele>
        <time>2021-03-06T07:11:14Z</time>
      </trkpt>
      <trkpt lat="49.09403" lon="6.73602">
        <ele>251.52</ele>
        <time>2021-03-06T07:11:32Z</time>
      </trkpt>
      <trkpt lat="49.09408" lon="6.73621">
        <ele>250.56</ele>
        <time>2021-03-06T07:11:42Z</time>
      </trkpt>
      <trkpt lat="49.09418" lon="6.73668">
        <ele>250.56</ele>
        <time>2021-03-06T07:12:05Z</time>
      </trkpt>
      <trkpt lat="49.09427" lon="6.73708">
        <ele>249.12</ele>
        <time>2021-03-06T07:12:26Z</time>
      </trkpt>
      <trkpt lat="49.09435" lon="6.73745">
        <ele>249.6</ele>
        <time>2021-03-06T07:12:43Z</time>
      </trkpt>
      <trkpt lat="49.09442" lon="6.73789">
        <ele>248.64</ele>
        <time>2021-03-06T07:13:05Z</time>
      </trkpt>
      <trkpt lat="49.09447" lon="6.73821">
        <ele>247.2</ele>
        <time>2021-03-06T07:13:20Z</time>
      </trkpt>
      <trkpt lat="49.09459" lon="6.73863">
        <ele>246.72</ele>
        <time>2021-03-06T07:13:42Z</time>
      </trkpt>
      <trkpt lat="49.09468" lon="6.73896">
        <ele>246.23</ele>
        <time>2021-03-06T07:14:00Z</time>
      </trkpt>
      <trkpt lat="49.09482" lon="6.73938">
        <ele>245.27</ele>
        <time>2021-03-06T07:14:22Z</time>
      </trkpt>
      <trkpt lat="49.09496" lon="6.73979">
        <ele>244.79</ele>
        <time>2021-03-06T07:14:44Z</time>
      </trkpt>
      <trkpt lat="49.09514" lon="6.74021">
        <ele>243.83</ele>
        <time>2021-03-06T07:15:07Z</time>
      </trkpt>
      <trkpt lat="49.0953" lon="6.74057">
        <ele>243.83</ele>
        <time>2021-03-06T07:15:27Z</time>
      </trkpt>
      <trkpt lat="49.09548" lon="6.74094">
        <ele>243.83</ele>
        <time>2021-03-06T07:15:49Z</time>
      </trkpt>
      <trkpt lat="49.09567" lon="6.74133">
        <ele>242.87</ele>
        <time>2021-03-06T07:16:11Z</time>
      </trkpt>
      <trkpt lat="49.09584" lon="6.74165">
        <ele>242.87</ele>
        <time>2021-03-06T07:16:31Z</time>
      </trkpt>
      <trkpt lat="49.09602" lon="6.74194">
        <ele>242.39</ele>
        <time>2021-03-06T07:16:51Z</time>
      </trkpt>
      <trkpt lat="49.09621" lon="6.74222">
        <ele>241.91</ele>
        <time>2021-03-06T07:17:11Z</time>
      </trkpt>
      <trkpt lat="49.09635" lon="6.74253">
        <ele>242.39</ele>
        <time>2021-03-06T07:17:29Z</time>
      </trkpt>
      <trkpt lat="49.09641" lon="6.74291">
        <ele>241.91</ele>
        <time>2021-03-06T07:17:48Z</time>
      </trkpt>
      <trkpt lat="49.09652" lon="6.74333">
        <ele>241.91</ele>
        <time>2021-03-06T07:18:10Z</time>
      </trkpt>
      <trkpt lat="49.09671" lon="6.74368">
        <ele>241.91</ele>
        <time>2021-03-06T07:18:32Z</time>
      </trkpt>
      <trkpt lat="49.09698" lon="6.74351">
        <ele>241.43</ele>
        <time>2021-03-06T07:18:53Z</time>
      </trkpt>
      <trkpt lat="49.09726" lon="6.74331">
        <ele>242.87</ele>
        <time>2021-03-06T07:19:16Z</time>
      </trkpt>
      <trkpt lat="49.09741" lon="6.74302">
        <ele>243.83</ele>
        <time>2021-03-06T07:19:32Z</time>
      </trkpt>
      <trkpt lat="49.09741" lon="6.74297">
        <ele>243.83</ele>
        <time>2021-03-06T07:19:34Z</time>
      </trkpt>
      <trkpt lat="49.09725" lon="6.74263">
        <ele>244.79</ele>
        <time>2021-03-06T07:19:53Z</time>
      </trkpt>
      <trkpt lat="49.09712" lon="6.74225">
        <ele>245.75</ele>
        <time>2021-03-06T07:20:14Z</time>
      </trkpt>
      <trkpt lat="49.09698" lon="6.74188">
        <ele>246.23</ele>
        <time>2021-03-06T07:20:35Z</time>
      </trkpt>
      <trkpt lat="49.09682" lon="6.74147">
        <ele>246.72</ele>
        <time>2021-03-06T07:20:57Z</time>
      </trkpt>
      <trkpt lat="49.09667" lon="6.7411">
        <ele>248.16</ele>
        <time>2021-03-06T07:21:18Z</time>
      </trkpt>
      <trkpt lat="49.09653" lon="6.74073">
        <ele>249.6</ele>
        <time>2021-03-06T07:21:39Z</time>
      </trkpt>
      <trkpt lat="49.09637" lon="6.74037">
        <ele>250.08</ele>
        <time>2021-03-06T07:22:01Z</time>
      </trkpt>
      <trkpt lat="49.09634" lon="6.74032">
        <ele>250.56</ele>
        <time>2021-03-06T07:22:07Z</time>
      </trkpt>
      <trkpt lat="49.09619" lon="6.73992">
        <ele>252</ele>
        <time>2021-03-06T07:22:29Z</time>
      </trkpt>
      <trkpt lat="49.09613" lon="6.7398">
        <ele>251.04</ele>
        <time>2021-03-06T07:22:43Z</time>
      </trkpt>
      <trkpt lat="49.09611" lon="6.73977">
        <ele>252</ele>
        <time>2021-03-06T07:22:48Z</time>
      </trkpt>
      <trkpt lat="49.09596" lon="6.73936">
        <ele>252</ele>
        <time>2021-03-06T07:23:13Z</time>
      </trkpt>
      <trkpt lat="49.09581" lon="6.73899">
        <ele>252.96</ele>
        <time>2021-03-06T07:23:33Z</time>
      </trkpt>
      <trkpt lat="49.09568" lon="6.73862">
        <ele>252.48</ele>
        <time>2021-03-06T07:23:54Z</time>
      </trkpt>
      <trkpt lat="49.09552" lon="6.73818">
        <ele>251.52</ele>
        <time>2021-03-06T07:24:18Z</time>
      </trkpt>
      <trkpt lat="49.09534" lon="6.73774">
        <ele>251.52</ele>
        <time>2021-03-06T07:24:42Z</time>
      </trkpt>
      <trkpt lat="49.09518" lon="6.73733">
        <ele>252</ele>
        <time>2021-03-06T07:25:04Z</time>
      </trkpt>
      <trkpt lat="49.09502" lon="6.73694">
        <ele>251.04</ele>
        <time>2021-03-06T07:25:25Z</time>
      </trkpt>
      <trkpt lat="49.09488" lon="6.73651">
        <ele>252.48</ele>
        <time>2021-03-06T07:25:48Z</time>
      </trkpt>
      <trkpt lat="49.09477" lon="6.73622">
        <ele>252.48</ele>
        <time>2021-03-06T07:26:05Z</time>
      </trkpt>
      <trkpt lat="49.09469" lon="6.73598">
        <ele>251.52</ele>
        <time>2021-03-06T07:26:21Z</time>
      </trkpt>
      <trkpt lat="49.09456" lon="6.7356">
        <ele>253.44</ele>
        <time>2021-03-06T07:26:42Z</time>
      </trkpt>
      <trkpt lat="49.09441" lon="6.73527">
        <ele>252.96</ele>
        <time>2021-03-06T07:27:01Z</time>
      </trkpt>
      <trkpt lat="49.09428" lon="6.73484">
        <ele>254.41</ele>
        <time>2021-03-06T07:27:23Z</time>
      </trkpt>
      <trkpt lat="49.09413" lon="6.7344">
        <ele>255.85</ele>
        <time>2021-03-06T07:27:47Z</time>
      </trkpt>
      <trkpt lat="49.09402" lon="6.73402">
        <ele>256.33</ele>
        <time>2021-03-06T07:28:07Z</time>
      </trkpt>
      <trkpt lat="49.09401" lon="6.734">
        <ele>256.33</ele>
        <time>2021-03-06T07:28:08Z</time>
      </trkpt>
      <trkpt lat="49.09395" lon="6.73366">
        <ele>255.85</ele>
        <time>2021-03-06T07:28:25Z</time>
      </trkpt>
      <trkpt lat="49.09387" lon="6.73327">
        <ele>257.29</ele>
        <time>2021-03-06T07:28:45Z</time>
      </trkpt>
      <trkpt lat="49.09379" lon="6.73283">
        <ele>258.25</ele>
        <time>2021-03-06T07:29:06Z</time>
      </trkpt>
      <trkpt lat="49.09371" lon="6.73245">
        <ele>259.21</ele>
        <time>2021-03-06T07:29:25Z</time>
      </trkpt>
      <trkpt lat="49.09366" lon="6.73218">
        <ele>260.17</ele>
        <time>2021-03-06T07:29:42Z</time>
      </trkpt>
      <trkpt lat="49.0936" lon="6.73194">
        <ele>260.17</ele>
        <time>2021-03-06T07:29:55Z</time>
      </trkpt>
      <trkpt lat="49.09351" lon="6.7316">
        <ele>260.17</ele>
        <time>2021-03-06T07:30:13Z</time>
      </trkpt>
      <trkpt lat="49.09338" lon="6.73116">
        <ele>260.17</ele>
        <time>2021-03-06T07:30:36Z</time>
      </trkpt>
      <trkpt lat="49.09324" lon="6.73072">
        <ele>261.14</ele>
        <time>2021-03-06T07:30:59Z</time>
      </trkpt>
      <trkpt lat="49.09312" lon="6.73034">
        <ele>263.06</ele>
        <time>2021-03-06T07:31:19Z</time>
      </trkpt>
      <trkpt lat="49.09304" lon="6.73011">
        <ele>263.54</ele>
        <time>2021-03-06T07:31:38Z</time>
      </trkpt>
      <trkpt lat="49.093" lon="6.73001">
        <ele>263.54</ele>
        <time>2021-03-06T07:31:55Z</time>
      </trkpt>
      <trkpt lat="49.09289" lon="6.72967">
        <ele>264.5</ele>
        <time>2021-03-06T07:32:14Z</time>
      </trkpt>
      <trkpt lat="49.09272" lon="6.72933">
        <ele>264.5</ele>
        <time>2021-03-06T07:32:34Z</time>
      </trkpt>
      <trkpt lat="49.09256" lon="6.72898">
        <ele>264.5</ele>
        <time>2021-03-06T07:32:54Z</time>
      </trkpt>
      <trkpt lat="49.09243" lon="6.72869">
        <ele>266.9</ele>
        <time>2021-03-06T07:33:11Z</time>
      </trkpt>
      <trkpt lat="49.09241" lon="6.72865">
        <ele>264.98</ele>
        <time>2021-03-06T07:33:13Z</time>
      </trkpt>
      <trkpt lat="49.09223" lon="6.7283">
        <ele>266.9</ele>
        <time>2021-03-06T07:33:33Z</time>
      </trkpt>
      <trkpt lat="49.09208" lon="6.72797">
        <ele>267.38</ele>
        <time>2021-03-06T07:33:52Z</time>
      </trkpt>
      <trkpt lat="49.0919" lon="6.72761">
        <ele>267.86</ele>
        <time>2021-03-06T07:34:13Z</time>
      </trkpt>
      <trkpt lat="49.09185" lon="6.7275">
        <ele>268.83</ele>
        <time>2021-03-06T07:34:20Z</time>
      </trkpt>
      <trkpt lat="49.09195" lon="6.72721">
        <ele>269.79</ele>
        <time>2021-03-06T07:34:36Z</time>
      </trkpt>
      <trkpt lat="49.09201" lon="6.72711">
        <ele>269.79</ele>
        <time>2021-03-06T07:34:43Z</time>
      </trkpt>
      <trkpt lat="49.09222" lon="6.72693">
        <ele>272.67</ele>
        <time>2021-03-06T07:35:02Z</time>
      </trkpt>
      <trkpt lat="49.09229" lon="6.72696">
        <ele>272.67</ele>
        <time>2021-03-06T07:35:08Z</time>
      </trkpt>
      <trkpt lat="49.09236" lon="6.72695">
        <ele>273.15</ele>
        <time>2021-03-06T07:35:15Z</time>
      </trkpt>
      <trkpt lat="49.09256" lon="6.72688">
        <ele>275.07</ele>
        <time>2021-03-06T07:35:30Z</time>
      </trkpt>
      <trkpt lat="49.09263" lon="6.72653">
        <ele>278.92</ele>
        <time>2021-03-06T07:35:49Z</time>
      </trkpt>
      <trkpt lat="49.09264" lon="6.72632">
        <ele>278.44</ele>
        <time>2021-03-06T07:35:59Z</time>
      </trkpt>
      <trkpt lat="49.09267" lon="6.72598">
        <ele>280.84</ele>
        <time>2021-03-06T07:36:17Z</time>
      </trkpt>
      <trkpt lat="49.0926" lon="6.7256">
        <ele>281.32</ele>
        <time>2021-03-06T07:36:36Z</time>
      </trkpt>
      <trkpt lat="49.09258" lon="6.72557">
        <ele>282.28</ele>
        <time>2021-03-06T07:36:38Z</time>
      </trkpt>
      <trkpt lat="49.09241" lon="6.72526">
        <ele>282.28</ele>
        <time>2021-03-06T07:36:57Z</time>
      </trkpt>
      <trkpt lat="49.09222" lon="6.72493">
        <ele>282.77</ele>
        <time>2021-03-06T07:37:17Z</time>
      </trkpt>
      <trkpt lat="49.09218" lon="6.72466">
        <ele>282.77</ele>
        <time>2021-03-06T07:37:31Z</time>
      </trkpt>
      <trkpt lat="49.09219" lon="6.72463">
        <ele>283.25</ele>
        <time>2021-03-06T07:37:33Z</time>
      </trkpt>
      <trkpt lat="49.09234" lon="6.72451">
        <ele>283.73</ele>
        <time>2021-03-06T07:37:50Z</time>
      </trkpt>
      <trkpt lat="49.09234" lon="6.7245">
        <ele>284.21</ele>
        <time>2021-03-06T07:37:51Z</time>
      </trkpt>
      <trkpt lat="49.09235" lon="6.72443">
        <ele>284.21</ele>
        <time>2021-03-06T07:37:56Z</time>
      </trkpt>
      <trkpt lat="49.09214" lon="6.72429">
        <ele>280.36</ele>
        <time>2021-03-06T07:38:14Z</time>
      </trkpt>
      <trkpt lat="49.09213" lon="6.72429">
        <ele>283.73</ele>
        <time>2021-03-06T07:38:15Z</time>
      </trkpt>
      <trkpt lat="49.09201" lon="6.72397">
        <ele>283.73</ele>
        <time>2021-03-06T07:38:33Z</time>
      </trkpt>
      <trkpt lat="49.0919" lon="6.72377">
        <ele>283.73</ele>
        <time>2021-03-06T07:38:46Z</time>
      </trkpt>
      <trkpt lat="49.09179" lon="6.72334">
        <ele>284.69</ele>
        <time>2021-03-06T07:39:08Z</time>
      </trkpt>
      <trkpt lat="49.09174" lon="6.72295">
        <ele>286.61</ele>
        <time>2021-03-06T07:39:27Z</time>
      </trkpt>
      <trkpt lat="49.09175" lon="6.72288">
        <ele>287.09</ele>
        <time>2021-03-06T07:39:33Z</time>
      </trkpt>
      <trkpt lat="49.09171" lon="6.72263">
        <ele>288.05</ele>
        <time>2021-03-06T07:39:48Z</time>
      </trkpt>
      <trkpt lat="49.09169" lon="6.72222">
        <ele>289.01</ele>
        <time>2021-03-06T07:40:08Z</time>
      </trkpt>
      <trkpt lat="49.09177" lon="6.7219">
        <ele>290.94</ele>
        <time>2021-03-06T07:40:26Z</time>
      </trkpt>
      <trkpt lat="49.0918" lon="6.72178">
        <ele>291.42</ele>
        <time>2021-03-06T07:40:35Z</time>
      </trkpt>
      <trkpt lat="49.09178" lon="6.72172">
        <ele>291.9</ele>
        <time>2021-03-06T07:40:39Z</time>
      </trkpt>
      <trkpt lat="49.09166" lon="6.72144">
        <ele>292.38</ele>
        <time>2021-03-06T07:40:56Z</time>
      </trkpt>
      <trkpt lat="49.09164" lon="6.72103">
        <ele>294.78</ele>
        <time>2021-03-06T07:41:16Z</time>
      </trkpt>
      <trkpt lat="49.09161" lon="6.72057">
        <ele>295.74</ele>
        <time>2021-03-06T07:41:38Z</time>
      </trkpt>
      <trkpt lat="49.09158" lon="6.72016">
        <ele>296.22</ele>
        <time>2021-03-06T07:41:58Z</time>
      </trkpt>
      <trkpt lat="49.09156" lon="6.71971">
        <ele>295.26</ele>
        <time>2021-03-06T07:42:20Z</time>
      </trkpt>
      <trkpt lat="49.09152" lon="6.71928">
        <ele>294.3</ele>
        <time>2021-03-06T07:42:41Z</time>
      </trkpt>
      <trkpt lat="49.0915" lon="6.71894">
        <ele>293.34</ele>
        <time>2021-03-06T07:42:58Z</time>
      </trkpt>
      <trkpt lat="49.09157" lon="6.71861">
        <ele>292.86</ele>
        <time>2021-03-06T07:43:17Z</time>
      </trkpt>
      <trkpt lat="49.0916" lon="6.71858">
        <ele>291.42</ele>
        <time>2021-03-06T07:43:20Z</time>
      </trkpt>
      <trkpt lat="49.09186" lon="6.71851">
        <ele>292.86</ele>
        <time>2021-03-06T07:43:40Z</time>
      </trkpt>
      <trkpt lat="49.09201" lon="6.71848">
        <ele>293.82</ele>
        <time>2021-03-06T07:43:54Z</time>
      </trkpt>
      <trkpt lat="49.09205" lon="6.71844">
        <ele>293.82</ele>
        <time>2021-03-06T07:44:00Z</time>
      </trkpt>
      <trkpt lat="49.09212" lon="6.71828">
        <ele>293.82</ele>
        <time>2021-03-06T07:44:14Z</time>
      </trkpt>
      <trkpt lat="49.09235" lon="6.71821">
        <ele>296.22</ele>
        <time>2021-03-06T07:44:33Z</time>
      </trkpt>
      <trkpt lat="49.09263" lon="6.7181">
        <ele>296.7</ele>
        <time>2021-03-06T07:44:54Z</time>
      </trkpt>
      <trkpt lat="49.09271" lon="6.71807">
        <ele>297.18</ele>
        <time>2021-03-06T07:45:00Z</time>
      </trkpt>
      <trkpt lat="49.09294" lon="6.71796">
        <ele>297.67</ele>
        <time>2021-03-06T07:45:19Z</time>
      </trkpt>
      <trkpt lat="49.09308" lon="6.71792">
        <ele>299.59</ele>
        <time>2021-03-06T07:45:30Z</time>
      </trkpt>
      <trkpt lat="49.09331" lon="6.71783">
        <ele>299.59</ele>
        <time>2021-03-06T07:45:47Z</time>
      </trkpt>
      <trkpt lat="49.09356" lon="6.71771">
        <ele>301.51</ele>
        <time>2021-03-06T07:46:05Z</time>
      </trkpt>
      <trkpt lat="49.09364" lon="6.71768">
        <ele>299.59</ele>
        <time>2021-03-06T07:46:11Z</time>
      </trkpt>
      <trkpt lat="49.09384" lon="6.71748">
        <ele>301.03</ele>
        <time>2021-03-06T07:46:31Z</time>
      </trkpt>
      <trkpt lat="49.09393" lon="6.71707">
        <ele>300.07</ele>
        <time>2021-03-06T07:46:51Z</time>
      </trkpt>
      <trkpt lat="49.09398" lon="6.71683">
        <ele>299.59</ele>
        <time>2021-03-06T07:47:08Z</time>
      </trkpt>
      <trkpt lat="49.09386" lon="6.7165">
        <ele>301.03</ele>
        <time>2021-03-06T07:47:28Z</time>
      </trkpt>
      <trkpt lat="49.09373" lon="6.7161">
        <ele>301.51</ele>
        <time>2021-03-06T07:47:50Z</time>
      </trkpt>
      <trkpt lat="49.09361" lon="6.71573">
        <ele>302.95</ele>
        <time>2021-03-06T07:48:11Z</time>
      </trkpt>
      <trkpt lat="49.09356" lon="6.71536">
        <ele>302.95</ele>
        <time>2021-03-06T07:48:28Z</time>
      </trkpt>
      <trkpt lat="49.09339" lon="6.71486">
        <ele>303.43</ele>
        <time>2021-03-06T07:48:54Z</time>
      </trkpt>
      <trkpt lat="49.09326" lon="6.71447">
        <ele>302.95</ele>
        <time>2021-03-06T07:49:15Z</time>
      </trkpt>
      <trkpt lat="49.09315" lon="6.71407">
        <ele>302.95</ele>
        <time>2021-03-06T07:49:36Z</time>
      </trkpt>
      <trkpt lat="49.09302" lon="6.71369">
        <ele>302.95</ele>
        <time>2021-03-06T07:49:57Z</time>
      </trkpt>
      <trkpt lat="49.09293" lon="6.71337">
        <ele>302.95</ele>
        <time>2021-03-06T07:50:17Z</time>
      </trkpt>
      <trkpt lat="49.09284" lon="6.71308">
        <ele>301.99</ele>
        <time>2021-03-06T07:50:36Z</time>
      </trkpt>
      <trkpt lat="49.09268" lon="6.71267">
        <ele>301.99</ele>
        <time>2021-03-06T07:51:00Z</time>
      </trkpt>
      <trkpt lat="49.09252" lon="6.71229">
        <ele>301.99</ele>
        <time>2021-03-06T07:51:22Z</time>
      </trkpt>
      <trkpt lat="49.0924" lon="6.71198">
        <ele>300.55</ele>
        <time>2021-03-06T07:51:40Z</time>
      </trkpt>
      <trkpt lat="49.09222" lon="6.71162">
        <ele>300.55</ele>
        <time>2021-03-06T07:52:01Z</time>
      </trkpt>
      <trkpt lat="49.09205" lon="6.71122">
        <ele>299.59</ele>
        <time>2021-03-06T07:52:24Z</time>
      </trkpt>
      <trkpt lat="49.09189" lon="6.71084">
        <ele>299.59</ele>
        <time>2021-03-06T07:52:46Z</time>
      </trkpt>
      <trkpt lat="49.09176" lon="6.71055">
        <ele>299.11</ele>
        <time>2021-03-06T07:53:04Z</time>
      </trkpt>
      <trkpt lat="49.09161" lon="6.71021">
        <ele>299.11</ele>
        <time>2021-03-06T07:53:24Z</time>
      </trkpt>
      <trkpt lat="49.09145" lon="6.70984">
        <ele>299.59</ele>
        <time>2021-03-06T07:53:46Z</time>
      </trkpt>
      <trkpt lat="49.09131" lon="6.70955">
        <ele>299.59</ele>
        <time>2021-03-06T07:54:04Z</time>
      </trkpt>
      <trkpt lat="49.09113" lon="6.70913">
        <ele>299.11</ele>
        <time>2021-03-06T07:54:28Z</time>
      </trkpt>
      <trkpt lat="49.09103" lon="6.70893">
        <ele>299.59</ele>
        <time>2021-03-06T07:54:40Z</time>
      </trkpt>
      <trkpt lat="49.09091" lon="6.70864">
        <ele>299.11</ele>
        <time>2021-03-06T07:54:58Z</time>
      </trkpt>
      <trkpt lat="49.09087" lon="6.70856">
        <ele>298.63</ele>
        <time>2021-03-06T07:55:03Z</time>
      </trkpt>
      <trkpt lat="49.0907" lon="6.70825">
        <ele>298.63</ele>
        <time>2021-03-06T07:55:21Z</time>
      </trkpt>
      <trkpt lat="49.0905" lon="6.70779">
        <ele>298.63</ele>
        <time>2021-03-06T07:55:46Z</time>
      </trkpt>
      <trkpt lat="49.09035" lon="6.70749">
        <ele>297.18</ele>
        <time>2021-03-06T07:56:04Z</time>
      </trkpt>
      <trkpt lat="49.09024" lon="6.70727">
        <ele>297.67</ele>
        <time>2021-03-06T07:56:21Z</time>
      </trkpt>
      <trkpt lat="49.09007" lon="6.70692">
        <ele>297.18</ele>
        <time>2021-03-06T07:56:41Z</time>
      </trkpt>
      <trkpt lat="49.08989" lon="6.70654">
        <ele>295.74</ele>
        <time>2021-03-06T07:57:03Z</time>
      </trkpt>
      <trkpt lat="49.08973" lon="6.7062">
        <ele>295.26</ele>
        <time>2021-03-06T07:57:22Z</time>
      </trkpt>
      <trkpt lat="49.08957" lon="6.70583">
        <ele>293.34</ele>
        <time>2021-03-06T07:57:42Z</time>
      </trkpt>
      <trkpt lat="49.08937" lon="6.70541">
        <ele>291.42</ele>
        <time>2021-03-06T07:58:05Z</time>
      </trkpt>
      <trkpt lat="49.08916" lon="6.70498">
        <ele>289.01</ele>
        <time>2021-03-06T07:58:28Z</time>
      </trkpt>
      <trkpt lat="49.08895" lon="6.70459">
        <ele>287.57</ele>
        <time>2021-03-06T07:58:50Z</time>
      </trkpt>
      <trkpt lat="49.08879" lon="6.70425">
        <ele>287.09</ele>
        <time>2021-03-06T07:59:10Z</time>
      </trkpt>
      <trkpt lat="49.08862" lon="6.7039">
        <ele>285.65</ele>
        <time>2021-03-06T07:59:29Z</time>
      </trkpt>
      <trkpt lat="49.08844" lon="6.70355">
        <ele>284.21</ele>
        <time>2021-03-06T07:59:49Z</time>
      </trkpt>
      <trkpt lat="49.08823" lon="6.70321">
        <ele>282.77</ele>
        <time>2021-03-06T08:00:10Z</time>
      </trkpt>
      <trkpt lat="49.08803" lon="6.70292">
        <ele>281.8</ele>
        <time>2021-03-06T08:00:29Z</time>
      </trkpt>
      <trkpt lat="49.08779" lon="6.70257">
        <ele>281.32</ele>
        <time>2021-03-06T08:00:52Z</time>
      </trkpt>
      <trkpt lat="49.08759" lon="6.70226">
        <ele>281.8</ele>
        <time>2021-03-06T08:01:12Z</time>
      </trkpt>
      <trkpt lat="49.08742" lon="6.70192">
        <ele>281.32</ele>
        <time>2021-03-06T08:01:32Z</time>
      </trkpt>
      <trkpt lat="49.08728" lon="6.70148">
        <ele>281.8</ele>
        <time>2021-03-06T08:01:55Z</time>
      </trkpt>
      <trkpt lat="49.08732" lon="6.70138">
        <ele>280.84</ele>
        <time>2021-03-06T08:02:03Z</time>
      </trkpt>
      <trkpt lat="49.08712" lon="6.70115">
        <ele>280.36</ele>
        <time>2021-03-06T08:02:22Z</time>
      </trkpt>
      <trkpt lat="49.08694" lon="6.70093">
        <ele>279.88</ele>
        <time>2021-03-06T08:02:39Z</time>
      </trkpt>
      <trkpt lat="49.08668" lon="6.7007">
        <ele>278.92</ele>
        <time>2021-03-06T08:03:01Z</time>
      </trkpt>
      <trkpt lat="49.08646" lon="6.70046">
        <ele>278.92</ele>
        <time>2021-03-06T08:03:21Z</time>
      </trkpt>
      <trkpt lat="49.08622" lon="6.70022">
        <ele>277.48</ele>
        <time>2021-03-06T08:03:41Z</time>
      </trkpt>
      <trkpt lat="49.08596" lon="6.69994">
        <ele>277.48</ele>
        <time>2021-03-06T08:04:03Z</time>
      </trkpt>
      <trkpt lat="49.08571" lon="6.6997">
        <ele>277.96</ele>
        <time>2021-03-06T08:04:23Z</time>
      </trkpt>
      <trkpt lat="49.08559" lon="6.69948">
        <ele>277.96</ele>
        <time>2021-03-06T08:04:39Z</time>
      </trkpt>
      <trkpt lat="49.0855" lon="6.69938">
        <ele>277</ele>
        <time>2021-03-06T08:04:57Z</time>
      </trkpt>
      <trkpt lat="49.08542" lon="6.69935">
        <ele>277</ele>
        <time>2021-03-06T08:05:18Z</time>
      </trkpt>
      <trkpt lat="49.08524" lon="6.69902">
        <ele>275.56</ele>
        <time>2021-03-06T08:05:39Z</time>
      </trkpt>
      <trkpt lat="49.0852" lon="6.69888">
        <ele>274.59</ele>
        <time>2021-03-06T08:05:51Z</time>
      </trkpt>
      <trkpt lat="49.08521" lon="6.69884">
        <ele>275.07</ele>
        <time>2021-03-06T08:06:06Z</time>
      </trkpt>
      <trkpt lat="49.08539" lon="6.6985">
        <ele>276.52</ele>
        <time>2021-03-06T08:06:28Z</time>
      </trkpt>
      <trkpt lat="49.08554" lon="6.69821">
        <ele>278.44</ele>
        <time>2021-03-06T08:06:45Z</time>
      </trkpt>
      <trkpt lat="49.08566" lon="6.69799">
        <ele>278.92</ele>
        <time>2021-03-06T08:07:01Z</time>
      </trkpt>
      <trkpt lat="49.08571" lon="6.69785">
        <ele>279.4</ele>
        <time>2021-03-06T08:07:16Z</time>
      </trkpt>
      <trkpt lat="49.0857" lon="6.69783">
        <ele>279.88</ele>
        <time>2021-03-06T08:07:34Z</time>
      </trkpt>
      <trkpt lat="49.08579" lon="6.69766">
        <ele>279.4</ele>
        <time>2021-03-06T08:07:51Z</time>
      </trkpt>
      <trkpt lat="49.08591" lon="6.69731">
        <ele>280.84</ele>
        <time>2021-03-06T08:08:10Z</time>
      </trkpt>
      <trkpt lat="49.086" lon="6.69691">
        <ele>282.77</ele>
        <time>2021-03-06T08:08:31Z</time>
      </trkpt>
      <trkpt lat="49.0861" lon="6.69648">
        <ele>283.73</ele>
        <time>2021-03-06T08:08:52Z</time>
      </trkpt>
      <trkpt lat="49.0862" lon="6.69598">
        <ele>285.65</ele>
        <time>2021-03-06T08:09:16Z</time>
      </trkpt>
      <trkpt lat="49.08631" lon="6.69557">
        <ele>285.65</ele>
        <time>2021-03-06T08:09:38Z</time>
      </trkpt>
      <trkpt lat="49.08647" lon="6.69512">
        <ele>286.61</ele>
        <time>2021-03-06T08:10:01Z</time>
      </trkpt>
      <trkpt lat="49.08655" lon="6.69496">
        <ele>287.09</ele>
        <time>2021-03-06T08:10:17Z</time>
      </trkpt>
      <trkpt lat="49.08671" lon="6.69456">
        <ele>288.53</ele>
        <time>2021-03-06T08:10:38Z</time>
      </trkpt>
      <trkpt lat="49.08685" lon="6.69422">
        <ele>289.49</ele>
        <time>2021-03-06T08:10:56Z</time>
      </trkpt>
      <trkpt lat="49.087" lon="6.69393">
        <ele>289.97</ele>
        <time>2021-03-06T08:11:14Z</time>
      </trkpt>
      <trkpt lat="49.08711" lon="6.69367">
        <ele>289.49</ele>
        <time>2021-03-06T08:11:32Z</time>
      </trkpt>
      <trkpt lat="49.08708" lon="6.6936">
        <ele>289.97</ele>
        <time>2021-03-06T08:11:48Z</time>
      </trkpt>
      <trkpt lat="49.08717" lon="6.69359">
        <ele>289.97</ele>
        <time>2021-03-06T08:12:11Z</time>
      </trkpt>
      <trkpt lat="49.08721" lon="6.69372">
        <ele>290.46</ele>
        <time>2021-03-06T08:12:32Z</time>
      </trkpt>
      <trkpt lat="49.08717" lon="6.69361">
        <ele>289.49</ele>
        <time>2021-03-06T08:12:51Z</time>
      </trkpt>
      <trkpt lat="49.08719" lon="6.69365">
        <ele>289.01</ele>
        <time>2021-03-06T08:13:11Z</time>
      </trkpt>
      <trkpt lat="49.08722" lon="6.69365">
        <ele>290.46</ele>
        <time>2021-03-06T08:13:26Z</time>
      </trkpt>
      <trkpt lat="49.08709" lon="6.69362">
        <ele>289.97</ele>
        <time>2021-03-06T08:13:44Z</time>
      </trkpt>
      <trkpt lat="49.08709" lon="6.69357">
        <ele>289.97</ele>
        <time>2021-03-06T08:14:09Z</time>
      </trkpt>
      <trkpt lat="49.08712" lon="6.69358">
        <ele>289.01</ele>
        <time>2021-03-06T08:14:46Z</time>
      </trkpt>
      <trkpt lat="49.08708" lon="6.69359">
        <ele>289.01</ele>
        <time>2021-03-06T08:15:33Z</time>
      </trkpt>
      <trkpt lat="49.08714" lon="6.69362">
        <ele>289.97</ele>
        <time>2021-03-06T08:16:15Z</time>
      </trkpt>
      <trkpt lat="49.08713" lon="6.69361">
        <ele>289.97</ele>
        <time>2021-03-06T08:16:49Z</time>
      </trkpt>
      <trkpt lat="49.08712" lon="6.69364">
        <ele>289.97</ele>
        <time>2021-03-06T08:17:27Z</time>
      </trkpt>
      <trkpt lat="49.08714" lon="6.69364">
        <ele>289.49</ele>
        <time>2021-03-06T08:18:04Z</time>
      </trkpt>
      <trkpt lat="49.08714" lon="6.69363">
        <ele>289.01</ele>
        <time>2021-03-06T08:18:36Z</time>
      </trkpt>
      <trkpt lat="49.08719" lon="6.6936">
        <ele>289.97</ele>
        <time>2021-03-06T08:19:06Z</time>
      </trkpt>
      <trkpt lat="49.08712" lon="6.69362">
        <ele>290.46</ele>
        <time>2021-03-06T08:19:43Z</time>
      </trkpt>
      <trkpt lat="49.08707" lon="6.69361">
        <ele>290.46</ele>
        <time>2021-03-06T08:20:20Z</time>
      </trkpt>
      <trkpt lat="49.0871" lon="6.6936">
        <ele>290.46</ele>
        <time>2021-03-06T08:21:02Z</time>
      </trkpt>
      <trkpt lat="49.08711" lon="6.69359">
        <ele>290.94</ele>
        <time>2021-03-06T08:21:42Z</time>
      </trkpt>
      <trkpt lat="49.08708" lon="6.69362">
        <ele>291.42</ele>
        <time>2021-03-06T08:22:24Z</time>
      </trkpt>
      <trkpt lat="49.08711" lon="6.69358">
        <ele>291.42</ele>
        <time>2021-03-06T08:22:59Z</time>
      </trkpt>
    </trkseg>
  </trk>
</gpx>